createdAt,value
2023-01-15T00:02:23.439Z,55.00
2023-01-15T00:04:51.921Z,46.70
2023-01-15T00:07:19.354Z,41.20
2023-01-15T00:09:46.809Z,54.60
2023-01-15T00:12:14.003Z,53.00
2023-01-15T00:14:41.722Z,54.40
2023-01-15T00:17:08.877Z,49.20
2023-01-15T00:19:36.464Z,51.80
2023-01-15T00:22:03.912Z,71.80
2023-01-15T00:24:50.384Z,46.20
2023-01-15T00:27:37.805Z,62.60
2023-01-15T00:30:05.371Z,57.10
2023-01-15T00:32:32.430Z,54.50
2023-01-15T00:34:59.760Z,46.00
2023-01-15T00:37:27.544Z,49.60
2023-01-15T00:39:54.736Z,56.20
2023-01-15T00:42:22.040Z,43.90
2023-01-15T00:44:49.400Z,46.70
2023-01-15T00:47:17.054Z,63.00
2023-01-15T00:49:45.228Z,53.60
2023-01-15T00:52:14.216Z,58.20
2023-01-15T00:54:41.201Z,51.40
2023-01-15T00:57:09.298Z,50.70
2023-01-15T00:59:36.274Z,52.00
2023-01-15T01:02:03.900Z,52.20
2023-01-15T01:04:30.989Z,48.40
2023-01-15T01:06:58.138Z,50.70
2023-01-15T01:09:25.183Z,63.30
2023-01-15T01:11:52.437Z,49.00
2023-01-15T01:14:19.664Z,53.20
2023-01-15T01:16:47.123Z,58.90
2023-01-15T01:19:20.114Z,52.60
2023-01-15T01:21:47.956Z,41.20
2023-01-15T01:24:18.154Z,52.50
2023-01-15T01:26:46.104Z,54.90
2023-01-15T01:29:14.483Z,59.00
2023-01-15T01:31:41.988Z,60.70
2023-01-15T01:34:10.017Z,60.90
2023-01-15T01:36:38.558Z,39.80
2023-01-15T01:39:06.694Z,47.10
2023-01-15T01:41:34.432Z,57.50
2023-01-15T01:44:05.791Z,53.00
2023-01-15T01:46:35.159Z,46.30
2023-01-15T01:49:10.295Z,56.80
2023-01-15T01:51:40.284Z,49.40
2023-01-15T01:54:07.461Z,46.30
2023-01-15T01:56:35.124Z,49.00
2023-01-15T01:59:02.169Z,40.80
2023-01-15T02:01:29.329Z,50.90
2023-01-15T02:03:57.713Z,43.50
2023-01-15T02:06:24.742Z,62.60
2023-01-15T02:08:52.386Z,44.50
2023-01-15T02:11:21.742Z,60.80
2023-01-15T02:14:12.908Z,32.20
2023-01-15T02:16:56.352Z,41.10
2023-01-15T02:20:05.996Z,53.00
2023-01-15T02:22:46.041Z,38.10
2023-01-15T02:25:18.930Z,41.30
2023-01-15T02:27:52.174Z,50.30
2023-01-15T02:30:26.030Z,50.40
2023-01-15T02:32:59.525Z,45.30
2023-01-15T02:35:34.867Z,49.50
2023-01-15T02:38:05.311Z,37.90
2023-01-15T02:40:32.956Z,42.80
2023-01-15T02:43:00.766Z,39.00
2023-01-15T02:45:30.967Z,47.20
2023-01-15T02:48:06.023Z,47.50
2023-01-15T02:50:37.322Z,41.40
2023-01-15T02:53:08.269Z,44.50
2023-01-15T02:55:39.638Z,38.00
2023-01-15T02:58:09.668Z,30.10
2023-01-15T03:00:39.912Z,56.50
2023-01-15T03:03:17.119Z,41.70
2023-01-15T03:06:03.227Z,42.90
2023-01-15T03:08:30.263Z,42.10
2023-01-15T03:11:14.366Z,52.30
2023-01-15T03:14:06.371Z,45.20
2023-01-15T03:16:35.327Z,43.00
2023-01-15T03:19:34.960Z,47.80
2023-01-15T03:22:08.350Z,46.70
2023-01-15T03:24:49.347Z,45.10
2023-01-15T03:27:17.395Z,41.80
2023-01-15T03:30:05.910Z,46.20
2023-01-15T03:32:32.995Z,41.90
2023-01-15T03:35:00.655Z,35.80
2023-01-15T03:37:28.623Z,62.40
2023-01-15T03:39:56.901Z,45.50
2023-01-15T03:42:40.843Z,53.40
2023-01-15T03:45:13.731Z,47.00
2023-01-15T03:47:59.151Z,51.70
2023-01-15T03:50:33.631Z,49.30
2023-01-15T03:53:32.397Z,52.50
2023-01-15T03:56:15.437Z,49.60
2023-01-15T03:58:48.538Z,44.00
2023-01-15T04:01:20.305Z,31.10
2023-01-15T04:03:49.378Z,38.70
2023-01-15T09:02:21.721Z,49.20
2023-01-15T09:04:48.844Z,62.10
2023-01-15T09:07:16.985Z,53.20
2023-01-15T09:09:45.225Z,94.10
2023-01-15T09:12:12.766Z,78.30
2023-01-15T09:14:55.368Z,55.60
2023-01-15T09:17:26.689Z,65.10
2023-01-15T09:19:53.669Z,48.30
2023-01-15T09:22:20.567Z,62.10
2023-01-15T09:24:47.760Z,59.50
2023-01-15T09:27:15.136Z,59.30
2023-01-15T09:29:42.674Z,56.20
2023-01-15T09:32:11.056Z,50.50
2023-01-15T09:34:38.427Z,52.10
2023-01-15T09:37:05.969Z,55.80
2023-01-15T09:39:33.426Z,38.50
2023-01-15T09:42:26.178Z,57.70
2023-01-15T09:45:14.259Z,46.00
2023-01-15T09:48:03.419Z,54.20
2023-01-15T09:50:46.296Z,60.00
2023-01-15T09:53:21.537Z,51.80
2023-01-15T09:55:50.905Z,61.80
2023-01-15T09:58:21.468Z,55.20
2023-01-15T10:00:50.371Z,68.40
2023-01-15T10:03:36.189Z,58.70
2023-01-15T10:06:09.428Z,51.70
2023-01-15T10:08:42.937Z,59.30
2023-01-15T10:11:16.350Z,55.60
2023-01-15T10:13:56.563Z,67.10
2023-01-15T10:16:26.300Z,64.70
2023-01-15T10:18:53.699Z,62.20
2023-01-15T10:21:42.503Z,67.00
2023-01-15T10:24:18.666Z,65.50
2023-01-15T10:26:59.395Z,55.70
2023-01-15T10:29:34.275Z,44.80
2023-01-15T10:32:29.987Z,67.10
2023-01-15T10:35:19.919Z,55.00
2023-01-15T10:38:22.181Z,62.40
2023-01-15T10:40:49.668Z,62.10
2023-01-15T10:43:25.618Z,69.70
2023-01-15T10:46:14.246Z,78.30
2023-01-15T10:48:46.301Z,68.70
2023-01-15T10:51:19.138Z,74.30
2023-01-15T10:54:05.876Z,77.10
2023-01-15T10:56:36.204Z,70.10
2023-01-15T10:59:19.967Z,48.50
2023-01-15T11:01:49.168Z,69.00
2023-01-15T11:04:16.995Z,76.10
2023-01-15T11:06:45.882Z,79.90
2023-01-15T11:09:22.569Z,76.10
2023-01-15T11:12:00.595Z,63.50
2023-01-15T11:14:57.089Z,71.20
2023-01-15T11:17:44.273Z,75.90
2023-01-15T11:20:43.054Z,64.80
2023-01-15T11:23:15.438Z,72.90
2023-01-15T11:25:57.517Z,78.00
2023-01-15T11:28:36.659Z,65.30
2023-01-15T11:31:04.486Z,54.00
2023-01-15T11:33:32.435Z,68.00
2023-01-15T11:36:01.796Z,76.60
2023-01-15T11:38:31.179Z,60.20
2023-01-15T11:41:02.871Z,61.60
2023-01-15T11:43:49.628Z,70.10
2023-01-15T11:46:49.422Z,59.00
2023-01-15T11:49:39.817Z,77.00
2023-01-15T11:52:10.562Z,69.80
2023-01-15T11:54:42.717Z,47.30
2023-01-15T11:57:11.128Z,58.60
2023-01-15T11:59:38.696Z,73.60
2023-01-15T12:02:32.983Z,92.50
2023-01-15T12:05:01.192Z,68.60
2023-01-15T12:07:28.863Z,73.10
2023-01-15T12:10:03.003Z,66.60
2023-01-15T12:13:16.153Z,64.60
2023-01-15T12:15:55.599Z,73.50
2023-01-15T12:19:01.236Z,64.50
2023-01-15T12:21:33.956Z,63.40
2023-01-15T12:24:14.573Z,62.90
2023-01-15T12:26:51.425Z,55.50
2023-01-15T12:29:18.803Z,62.60
2023-01-15T12:31:54.021Z,64.70
2023-01-15T12:35:29.648Z,73.80
2023-01-15T12:38:10.599Z,68.30
2023-01-15T12:40:52.344Z,50.50
2023-01-15T12:43:43.443Z,64.80
2023-01-15T12:46:17.008Z,38.00
2023-01-15T12:48:48.555Z,55.00
2023-01-15T12:51:23.720Z,52.40
2023-01-15T12:53:58.510Z,62.10
2023-01-15T12:56:29.768Z,55.60
2023-01-15T12:59:42.866Z,59.00
2023-01-15T18:27:48.458Z,77.80
2023-01-15T18:30:16.835Z,78.20
2023-01-15T18:32:45.819Z,94.00
2023-01-15T18:35:14.459Z,91.90
2023-01-15T18:37:43.470Z,92.10
2023-01-15T18:40:12.235Z,87.50
2023-01-15T18:42:59.472Z,88.40
2023-01-15T18:45:48.569Z,90.90
2023-01-15T18:48:16.542Z,94.80
2023-01-15T18:50:44.624Z,82.80
2023-01-15T18:53:15.854Z,83.20
2023-01-15T18:55:43.786Z,69.00
2023-01-15T18:58:11.612Z,70.00
2023-01-15T19:00:41.145Z,72.10
2023-01-15T19:03:14.587Z,56.80
2023-01-15T19:05:43.584Z,71.50
2023-01-15T19:08:12.898Z,68.90
2023-01-15T19:10:42.940Z,62.40
2023-01-15T19:13:13.169Z,60.20
2023-01-15T19:16:00.865Z,59.20
2023-01-15T19:18:52.287Z,58.80
2023-01-15T19:21:22.821Z,48.50
2023-01-15T19:23:51.281Z,53.30
2023-01-15T19:26:19.705Z,57.50
2023-01-15T19:28:47.808Z,64.80
2023-01-15T19:31:36.658Z,70.20
2023-01-15T19:34:32.165Z,57.20
2023-01-15T19:36:57.105Z,64.90
2023-01-15T19:39:26.365Z,64.90
2023-01-15T19:42:16.373Z,66.90
2023-01-15T19:45:05.417Z,60.60
2023-01-15T19:48:16.997Z,51.40
2023-01-15T19:50:45.369Z,55.90
2023-01-15T19:53:13.393Z,67.00
2023-01-15T19:55:46.024Z,62.90
2023-01-15T19:58:14.420Z,68.50
2023-01-15T20:00:45.010Z,63.30
2023-01-15T20:03:13.198Z,53.70
2023-01-15T20:05:42.923Z,60.30
2023-01-15T20:08:17.647Z,50.30
2023-01-15T20:10:49.933Z,59.70
2023-01-15T20:13:40.984Z,61.60
2023-01-15T20:16:12.823Z,68.00
2023-01-15T20:18:40.641Z,65.10
2023-01-15T20:21:07.957Z,62.20
2023-01-15T20:23:36.390Z,58.50
2023-01-15T20:26:05.578Z,57.90
2023-01-15T20:28:36.527Z,59.80
2023-01-15T20:31:13.885Z,63.40
2023-01-15T20:33:47.148Z,65.80
2023-01-15T20:36:15.547Z,59.00
2023-01-15T20:38:42.963Z,55.80
2023-01-15T20:41:29.944Z,58.70
2023-01-15T20:44:24.661Z,56.40
2023-01-15T20:46:52.770Z,54.00
2023-01-15T20:49:28.733Z,63.20
2023-01-15T20:51:57.902Z,57.00
2023-01-15T20:54:25.866Z,66.60
2023-01-15T20:56:54.803Z,72.00
2023-01-15T20:59:22.372Z,67.90
2023-01-15T21:01:49.980Z,66.00
2023-01-15T21:04:18.552Z,63.00
2023-01-15T21:06:47.510Z,65.80
2023-01-15T21:09:15.198Z,60.40
2023-01-15T21:11:43.725Z,64.50
2023-01-15T21:14:12.194Z,85.90
2023-01-15T21:16:40.074Z,67.00
2023-01-15T21:19:12.116Z,68.10
2023-01-15T21:21:40.159Z,73.70
2023-01-15T21:24:07.946Z,61.30
2023-01-15T21:26:36.110Z,59.70
2023-01-15T21:29:03.683Z,61.30
2023-01-15T21:31:30.955Z,61.90
2023-01-15T21:33:58.517Z,59.20
2023-01-15T21:36:26.023Z,61.10
2023-01-15T21:38:58.463Z,57.30
2023-01-15T21:41:44.534Z,71.10
2023-01-15T21:44:37.770Z,70.10
2023-01-15T21:47:06.577Z,58.30
2023-01-15T21:49:34.205Z,60.00
2023-01-15T21:52:04.410Z,75.00
2023-01-15T21:54:32.227Z,72.60
2023-01-15T21:56:59.835Z,65.80
2023-01-15T21:59:28.718Z,69.10
2023-01-15T22:01:57.220Z,62.60
2023-01-15T22:04:25.664Z,75.00
2023-01-15T22:06:53.183Z,66.60
2023-01-15T22:09:21.009Z,76.00
2023-01-15T22:11:48.694Z,87.40
2023-01-15T22:14:28.900Z,79.70
2023-01-15T22:16:57.702Z,87.70
2023-01-15T22:19:27.012Z,108.10
2023-01-15T22:21:56.739Z,83.10
2023-01-15T22:24:32.268Z,85.30
2023-01-15T22:27:00.298Z,90.30
2023-01-15T22:29:32.623Z,89.30
2023-01-15T22:32:00.322Z,82.20
2023-01-15T22:34:28.284Z,86.10
2023-01-15T22:36:55.910Z,89.00
2023-01-15T22:39:23.976Z,90.80
2023-01-15T22:42:10.165Z,98.30
2023-01-15T22:44:37.870Z,104.90
2023-01-15T22:47:05.319Z,72.60
2023-01-15T22:49:32.740Z,81.40
2023-01-15T22:52:00.188Z,86.00
2023-01-15T22:54:27.533Z,87.00
2023-01-15T22:57:16.880Z,84.70
2023-01-15T22:59:45.280Z,93.50
2023-01-15T23:02:12.975Z,93.10
2023-01-15T23:04:40.838Z,83.50
2023-01-15T23:07:09.182Z,89.70
2023-01-15T23:09:36.942Z,87.20
2023-01-15T23:12:04.563Z,94.30
2023-01-15T23:14:32.219Z,84.00
2023-01-15T23:17:00.448Z,72.10
2023-01-15T23:19:28.023Z,69.50
2023-01-15T23:22:00.333Z,78.50
2023-01-15T23:24:28.283Z,74.00
2023-01-15T23:26:55.579Z,86.50
2023-01-15T23:29:34.810Z,78.60
2023-01-15T23:32:02.695Z,72.90
2023-01-15T23:34:30.432Z,91.40
2023-01-15T23:36:58.022Z,82.30
2023-01-15T23:39:25.571Z,78.40
2023-01-15T23:42:11.578Z,85.90
2023-01-15T23:44:57.545Z,78.00
2023-01-15T23:47:24.906Z,81.20
2023-01-15T23:49:53.098Z,80.60
2023-01-15T23:52:20.422Z,75.10
2023-01-15T23:54:47.788Z,83.80
2023-01-15T23:57:15.182Z,82.70
2023-01-15T23:59:44.552Z,90.80
